KMRN

Details ICAO KMRN (MRN)
Name FOOTHILLS RGNL
Region United States
Timezone America/New_York (UTC-5.0)
Plans Departing 1
Arriving 4
Stats Elevation 1,270 ft / 387 m (AMSL)
Location 35.820234° -81.611411°
Runways 1
Magnetic Variation 7.347° W
Sunrise 2017-12-18 12:32:37 UTC / 2017-12-18 07:32:37 Local
Sunset 2017-12-18 22:16:25 UTC / 2017-12-18 17:16:25 Local
Advertisement - Login to hide

Runways

ID Width Length Bearing (true) Bearing (mag) Surface Threshold Offset Overrun Length
03 75 ft / 23 m 5,510 ft / 1,679 m 23.51° 30.86° Asphalt 0 ft / 0 m 0 ft / 0 m
21 75 ft / 23 m 5,510 ft / 1,679 m 203.51° 210.86° Asphalt 0 ft / 0 m 0 ft / 0 m

Approach Navaids

Runway Type Ident Frequency Range Bearing (true) Bearing (mag) Slope Elevation
03 Localiser MRN 110.10 MHz 18 nm / 33 km 23.51° 30.86° - 1,270 ft / 387 m (AMSL)

Map

Weather


0- 5 10 15 20 25 30 35+ Temperature / ° C

Clouds and Precipitation
Forecast for 2017-12-18 12:00 UTC. Updated 17 minutes ago

Ground ~20,000 ft ~40,000 ft Winds

METAR

KMRN 181125Z AUTO 00000KT 7SM CLR M02/M02 A3018 RMK AO2 T10251025

TAF

Not found

Frequencies

Recorded 124.17 MHz AWOS 3
Unicom 122.70 MHz CTAF/UNICOM
Warning: Do not use this data for real-world aviation or navigation. No guarantee of current accuracy is given.